Share

Collyer, KS (67631)

WaKeeney East Side (KKSWAKEE1) Elev 2461 ft | 39.03 °N, 99.87 °W | Change Station

Current weather conditions updated 55 seconds ago

Clear
Clear
42.3 °F
Feels Like 42 °F
N
0.0
Wind Variable Wind from North
Gusts 0.0 mph
Sunrise 6:59 AM
Sunset 8:20 PM
Moon Waning Gibbous

Today is forecast to be Much Warmer than yesterday.

Pressure 30.23 in
Visibility 10.0 miles
Clouds Clear
Windchill 42 °F
Dew Point 35 °F
Humidity 75%
Rainfall -999.00 in
Snow Depth Not available.
UV 0 out of 16
Pollen 9.40 out of 12
Air Quality Not available.
Flu Activity Sporadic
METAR KHLC 180553Z AUTO 19006KT 10SM CLR 06/03 A3021 RMK AO2 SLP236 T00560028 10144 20056 401440000 51003

More Conditions Fewer Conditions

Pressure 30.23 in
Visibility 10.0 miles
Clouds Clear
Windchill 42 °F
Dew Point 35 °F
Humidity 75%
Rainfall -999.00 in
Snow Depth Not available.
UV 0 out of 16
Pollen 9.40 out of 12
Air Quality Not available.
Flu Activity Sporadic
METAR KHLC 180553Z AUTO 19006KT 10SM CLR 06/03 A3021 RMK AO2 SLP236 T00560028 10144 20056 401440000 51003

More Conditions Fewer Conditions

10-Day Forecast

Almanac

Astronomy

Apr. 18, 2014 Rise Set
Actual Time 6:59 AM CDT 8:20 PM CDT
Civil Twilight 6:31 AM CDT 8:48 PM CDT
Nautical Twilight 5:58 AM CDT 9:21 PM CDT
Astronomical Twilight 5:23 AM CDT 9:56 PM CDT
Moon No Moon Rise 9:24 AM CDT
Length of Visible Light 14h 16m
Length of Day
13h 20m
Tomorrow will be 2m 22s longer.
Waning Gibbous, 90% of the Moon is Illuminated
Today
Waning Gibbous
Apr 22
Last Quarter
Apr 29
New
May 6
First Quarter
May 14
Full

Today's Extremes

State Highs State Lows

Community

  • SUNRISE THROUGH THE TREES.
    SUNRISE THROUGH THE TREES.
  • Dog Wood Blossoms
    Dog Wood Blossoms
  • Morning Light
    Morning Light
  • New Day
    New Day
  • Lake Michigan Sunrise
    Lake Michigan Sunrise

WunderPhotos

Upload Photos

1,702,276 photos uploaded!

WunderBlogs® & News

Nearby

Snow Depth

Station Depth Elevation
No new snow has been reported.

Coastal Water Temperatures

Place Temperature
No Stations Reporting

Earthquake Activity

City Distance Mag. Time & Date
No recent earthquake activity has been reported nearby.
Minimum magnitude displayed is 2.5.

Nearby Weather Stations

Station Location Temp. Windchill Dew Point Humidity Wind Precip. Elev Updated Type
MesoWest QUNTER , Park, KS 48 °F 48 °F - - North  at  - 0.00 in / hr 2638 ft 12:00 AM CDT MADIS
WaKeeney East Side, WaKeeney, KS 42.3 °F 42 °F 35 °F 75% North  at  0.0 mph 0.00 in / hr 2461 ft 1:07 AM CDT Normal
MesoWest WAKENY , Wa Keeney, KS 44 °F 44 °F - - North  at  - 0.00 in / hr 2416 ft 9:30 PM CDT MADIS
South Gove, Gove, KS 40.1 °F 37 °F 37 °F 90% SSE  at  5.1 mph - / hr 2631 ft 12:54 AM CDT Normal

Show More Stations Show Fewer Stations

What do you think?

We're not finished. Please let us know what you like, what you don't like, and what you are still missing.